createdAt,value
2024-04-17T00:02:36.760Z,2.95
2024-04-17T00:07:39.904Z,3.90
2024-04-17T00:12:43.255Z,4.78
2024-04-17T00:17:46.462Z,6.85
2024-04-17T00:22:49.675Z,3.03
2024-04-17T00:27:52.911Z,3.08
2024-04-17T00:32:56.134Z,2.70
2024-04-17T00:37:59.433Z,2.70
2024-04-17T00:43:03.287Z,3.20
2024-04-17T00:48:10.284Z,2.67
2024-04-17T00:53:18.654Z,4.60
2024-04-17T00:58:23.484Z,5.87
2024-04-17T01:03:27.822Z,3.88
2024-04-17T01:08:30.911Z,3.33
2024-04-17T01:13:34.279Z,4.93
2024-04-17T01:18:39.221Z,6.38
2024-04-17T01:23:42.305Z,4.37
2024-04-17T01:28:45.574Z,2.67
2024-04-17T01:33:48.928Z,7.38
2024-04-17T01:38:52.094Z,5.00
2024-04-17T01:43:55.405Z,4.20
2024-04-17T01:48:58.643Z,2.23
2024-04-17T01:54:02.047Z,3.30
2024-04-17T01:59:05.332Z,7.50
2024-04-17T02:04:08.395Z,5.45
2024-04-17T02:09:11.641Z,7.68
2024-04-17T02:14:14.918Z,4.83
2024-04-17T02:19:18.454Z,4.60
2024-04-17T02:24:21.610Z,5.15
2024-04-17T02:29:24.870Z,6.97
2024-04-17T02:34:27.989Z,5.57
2024-04-17T02:39:31.256Z,6.73
2024-04-17T02:44:34.622Z,6.70
2024-04-17T02:49:37.758Z,6.70
2024-04-17T02:54:40.995Z,4.72
2024-04-17T02:59:44.107Z,6.32
2024-04-17T03:04:47.325Z,7.23
2024-04-17T03:09:53.631Z,5.07
2024-04-17T03:14:58.434Z,5.72
2024-04-17T03:20:01.608Z,6.30
2024-04-17T03:25:05.101Z,6.07
2024-04-17T03:30:09.191Z,4.27
2024-04-17T03:35:13.204Z,6.10
2024-04-17T03:40:16.431Z,4.93
2024-04-17T03:45:20.313Z,7.15
2024-04-17T03:50:23.571Z,4.22
2024-04-17T03:55:26.975Z,6.23
2024-04-17T04:00:30.205Z,5.93
2024-04-17T04:05:33.454Z,5.20
2024-04-17T04:10:36.812Z,6.13
2024-04-17T04:15:41.164Z,5.00
2024-04-17T04:20:45.618Z,3.87
2024-04-17T04:25:48.800Z,5.50
2024-04-17T04:30:53.154Z,4.85
2024-04-17T04:35:56.258Z,4.20
2024-04-17T04:40:59.406Z,7.95
2024-04-17T04:46:02.769Z,5.70
2024-04-17T04:51:06.246Z,3.58
2024-04-17T04:56:09.609Z,4.40
2024-04-17T05:01:13.107Z,4.43
2024-04-17T05:06:16.340Z,5.30
2024-04-17T05:11:19.986Z,3.17
2024-04-17T05:16:23.336Z,4.90
2024-04-17T05:21:26.567Z,3.92
2024-04-17T05:26:29.794Z,2.92
2024-04-17T05:31:33.902Z,4.78
2024-04-17T05:36:37.971Z,4.47
2024-04-17T05:41:41.108Z,8.48
2024-04-17T05:46:44.235Z,4.97
2024-04-17T05:51:47.341Z,4.38
2024-04-17T05:56:51.428Z,6.10
2024-04-17T06:01:54.668Z,4.20
2024-04-17T06:06:58.193Z,4.70
2024-04-17T06:12:01.879Z,4.07
2024-04-17T06:17:05.080Z,7.07
2024-04-17T06:22:08.309Z,7.85
2024-04-17T06:27:11.504Z,12.30
2024-04-17T06:32:14.827Z,12.98
2024-04-17T06:37:18.013Z,8.40
2024-04-17T06:42:21.169Z,4.80
2024-04-17T06:47:24.335Z,8.40
2024-04-17T06:52:27.486Z,8.03
2024-04-17T06:57:30.911Z,11.20
2024-04-17T07:02:36.485Z,11.73
2024-04-17T07:07:41.695Z,9.00
2024-04-17T07:12:45.187Z,13.43
2024-04-17T07:17:48.420Z,11.33
2024-04-17T07:22:52.085Z,9.93
2024-04-17T07:27:56.144Z,13.50
2024-04-17T07:32:59.351Z,13.25
2024-04-17T07:38:02.647Z,11.20
2024-04-17T07:43:06.069Z,14.87
2024-04-17T07:48:09.808Z,13.13
2024-04-17T07:53:13.293Z,13.85
2024-04-17T07:58:16.589Z,15.98
2024-04-17T08:03:19.905Z,14.95
2024-04-17T08:08:23.015Z,13.77
2024-04-17T08:13:26.200Z,11.65
2024-04-17T08:18:29.349Z,10.88
2024-04-17T08:23:35.193Z,11.98
2024-04-17T08:28:40.116Z,12.27
2024-04-17T08:33:43.848Z,8.53
2024-04-17T08:38:47.225Z,12.93
2024-04-17T08:43:52.262Z,6.65
2024-04-17T08:48:59.894Z,10.50
2024-04-17T08:54:05.313Z,14.35
2024-04-17T08:59:11.226Z,12.17
2024-04-17T09:04:15.274Z,7.40
2024-04-17T09:09:21.004Z,11.65
2024-04-17T09:14:24.212Z,12.50
2024-04-17T09:19:27.483Z,10.50
2024-04-17T09:24:31.660Z,12.27
2024-04-17T09:29:34.760Z,9.48
2024-04-17T09:34:38.025Z,10.25
2024-04-17T09:39:41.611Z,11.90
2024-04-17T09:44:49.092Z,14.48
2024-04-17T09:49:56.305Z,8.20
2024-04-17T09:55:01.023Z,14.52
2024-04-17T10:00:05.815Z,14.07
2024-04-17T10:05:11.845Z,13.25
2024-04-17T10:10:18.098Z,14.40
2024-04-17T10:15:21.270Z,13.17
2024-04-17T10:20:29.304Z,12.00
2024-04-17T10:25:39.879Z,12.38
2024-04-17T10:30:45.075Z,12.00
2024-04-17T10:35:50.496Z,12.52
2024-04-17T10:40:57.974Z,13.87
2024-04-17T10:46:09.818Z,15.95
2024-04-17T10:51:16.429Z,15.10
2024-04-17T10:56:19.787Z,16.08
2024-04-17T11:01:25.125Z,15.52
2024-04-17T11:06:28.626Z,16.27
2024-04-17T11:11:32.458Z,13.80
2024-04-17T11:16:36.859Z,10.40
2024-04-17T11:21:41.475Z,11.68
2024-04-17T11:26:45.742Z,9.48
2024-04-17T11:31:49.382Z,12.60
2024-04-17T11:36:53.077Z,11.57
2024-04-17T11:41:56.260Z,8.35
2024-04-17T11:46:59.545Z,12.07
2024-04-17T11:52:05.294Z,13.30
2024-04-17T11:57:11.087Z,12.43
2024-04-17T12:02:16.562Z,14.57
2024-04-17T12:07:19.835Z,8.63
2024-04-17T12:12:24.300Z,8.27
2024-04-17T12:17:27.649Z,10.70
2024-04-17T12:22:30.946Z,9.80
2024-04-17T12:27:34.090Z,8.90
2024-04-17T12:32:37.295Z,8.75
2024-04-17T12:37:41.413Z,8.23
2024-04-17T12:42:44.733Z,10.73
2024-04-17T12:47:48.089Z,8.10
2024-04-17T12:52:53.765Z,7.55
2024-04-17T12:57:56.964Z,7.93
2024-04-17T13:03:00.203Z,8.00
2024-04-17T13:08:03.772Z,6.65
2024-04-17T13:13:07.072Z,6.20
2024-04-17T13:18:10.425Z,7.95
2024-04-17T13:23:16.580Z,6.82
2024-04-17T13:28:20.362Z,6.30
2024-04-17T13:33:23.615Z,6.03
2024-04-17T13:38:27.607Z,6.70
2024-04-17T13:43:31.253Z,10.70
2024-04-17T13:48:35.207Z,8.20
2024-04-17T13:53:39.109Z,5.72
2024-04-17T13:58:43.678Z,7.78
2024-04-17T14:03:47.370Z,20.87
2024-04-17T14:08:50.878Z,10.40
2024-04-17T14:13:54.072Z,7.40
2024-04-17T14:18:57.288Z,6.68
2024-04-17T14:24:00.657Z,9.77
2024-04-17T14:29:03.830Z,6.77
2024-04-17T14:34:07.145Z,7.43
2024-04-17T14:39:10.900Z,7.70
2024-04-17T14:44:14.959Z,6.68
2024-04-17T14:49:18.189Z,8.18
2024-04-17T14:54:21.938Z,6.70
2024-04-17T14:59:25.312Z,8.10
2024-04-17T15:04:28.471Z,8.15
2024-04-17T15:09:34.742Z,6.00
2024-04-17T15:14:38.091Z,7.90
2024-04-17T15:19:41.200Z,6.53
2024-04-17T15:24:48.573Z,8.02
2024-04-17T15:29:51.829Z,6.93
2024-04-17T15:34:55.957Z,7.40
2024-04-17T15:39:59.652Z,9.43
2024-04-17T15:45:02.869Z,7.50
2024-04-17T15:50:06.812Z,5.78
2024-04-17T15:55:10.654Z,4.68
2024-04-17T16:00:14.358Z,7.25
2024-04-17T16:05:17.623Z,6.78
2024-04-17T16:10:20.989Z,7.70
2024-04-17T16:15:24.622Z,7.10
2024-04-17T16:20:31.592Z,4.03
2024-04-17T16:25:34.936Z,6.00
2024-04-17T16:30:41.977Z,7.03
2024-04-17T16:35:58.834Z,8.80
2024-04-17T16:41:05.888Z,13.88
2024-04-17T16:46:15.625Z,13.07
2024-04-17T16:51:19.390Z,12.18
2024-04-17T16:56:22.667Z,7.97
2024-04-17T17:01:26.090Z,15.40
2024-04-17T17:06:29.867Z,10.00
2024-04-17T17:11:33.198Z,10.73
2024-04-17T17:16:36.553Z,7.15
2024-04-17T17:21:40.553Z,6.70
2024-04-17T17:26:43.766Z,5.53
2024-04-17T17:31:47.105Z,6.88
2024-04-17T17:36:50.376Z,13.23
2024-04-17T17:41:53.813Z,6.65
2024-04-17T17:46:56.842Z,6.22
2024-04-17T17:52:00.147Z,5.77
2024-04-17T17:57:03.896Z,15.23
2024-04-17T18:02:07.447Z,18.48
2024-04-17T18:07:10.912Z,14.80
2024-04-17T18:12:14.190Z,18.90
2024-04-17T18:17:17.502Z,15.83
2024-04-17T18:22:20.746Z,12.02
2024-04-17T18:27:24.236Z,10.93
2024-04-17T18:32:27.945Z,10.88
2024-04-17T18:37:31.094Z,17.52
2024-04-17T18:42:35.479Z,30.60
2024-04-17T18:47:38.857Z,15.57
2024-04-17T18:52:42.132Z,20.65
2024-04-17T18:57:45.649Z,9.65
2024-04-17T19:02:55.573Z,16.48
2024-04-17T19:07:58.727Z,10.03
2024-04-17T19:13:03.542Z,10.85
2024-04-17T19:18:06.918Z,7.53
2024-04-17T19:23:10.069Z,12.32
2024-04-17T19:28:13.208Z,11.25
2024-04-17T19:33:16.453Z,12.63
2024-04-17T19:38:19.575Z,11.82
2024-04-17T19:43:23.030Z,10.27
2024-04-17T19:48:26.775Z,13.30
2024-04-17T19:53:31.756Z,12.50
2024-04-17T19:58:35.843Z,14.87
2024-04-17T20:03:40.503Z,12.60
2024-04-17T20:08:44.612Z,17.23
2024-04-17T20:13:47.926Z,18.42
2024-04-17T20:18:51.456Z,14.63
2024-04-17T20:23:54.770Z,12.40
2024-04-17T20:29:03.474Z,24.30
2024-04-17T20:34:09.673Z,16.48
2024-04-17T20:39:13.076Z,16.95
2024-04-17T20:44:16.280Z,16.58
2024-04-17T20:49:19.952Z,19.37
2024-04-17T20:54:23.274Z,22.73
2024-04-17T20:59:26.500Z,20.52
2024-04-17T21:04:29.803Z,15.15
2024-04-17T21:09:32.954Z,13.20
2024-04-17T21:14:36.765Z,12.60
2024-04-17T21:19:39.884Z,11.05
2024-04-17T21:24:43.164Z,16.67
2024-04-17T21:29:46.450Z,13.95
2024-04-17T21:34:49.707Z,15.75
2024-04-17T21:39:56.212Z,13.60
2024-04-17T21:45:01.278Z,11.88
2024-04-17T21:50:04.509Z,12.20
2024-04-17T21:55:07.628Z,14.23
2024-04-17T22:00:12.547Z,17.00
2024-04-17T22:05:16.398Z,16.27
2024-04-17T22:10:19.494Z,15.65
2024-04-17T22:15:22.746Z,14.27
2024-04-17T22:20:25.926Z,12.88
2024-04-17T22:25:29.121Z,13.48
2024-04-17T22:30:32.322Z,14.70
2024-04-17T22:35:35.947Z,15.82
2024-04-17T22:40:39.316Z,15.35
2024-04-17T22:45:42.936Z,11.75
2024-04-17T22:50:46.299Z,11.85
2024-04-17T22:55:49.703Z,16.17
2024-04-17T23:00:53.242Z,16.25
2024-04-17T23:05:56.778Z,14.35
2024-04-17T23:11:00.746Z,16.00
2024-04-17T23:16:04.291Z,19.05
2024-04-17T23:21:07.699Z,14.70
2024-04-17T23:26:10.996Z,15.25
2024-04-17T23:31:14.715Z,15.55
2024-04-17T23:36:18.158Z,14.43
2024-04-17T23:41:21.581Z,22.88
2024-04-17T23:46:25.001Z,13.13
2024-04-17T23:51:29.316Z,16.77
2024-04-17T23:56:32.610Z,19.92
